Time;durP1;ratioP1;P1;durP2;ratioP2;P2;SDS_P1;SDS_P2;PMS_P1;PMS_P2;Temp;Humidity;BMP_temperature;BMP_pressure;BME280_temperature;BME280_humidity;BME280_pressure;Samples;Min_cycle;Max_cycle;Signal;HPM_P1;HPM_P2
2022/06/27 00:02:13;;;;;;;9.30;4.57;;;;;;;;;;5111437;28;20059;-66
2022/06/27 00:04:44;;;;;;;8.80;3.73;;;;;;;;;;5129281;27;20041;-65
2022/06/27 00:07:18;;;;;;;2.70;1.20;;;;;;;;;;5130561;27;20545;-65
2022/06/27 00:09:52;;;;;;;3.30;1.42;;;;;;;;;;5130156;27;20027;-65
2022/06/27 00:12:23;;;;;;;2.83;2.22;;;;;;;;;;5135105;27;20157;-65
2022/06/27 00:14:54;;;;;;;6.73;1.40;;;;;;;;;;5134193;27;20509;-65
2022/06/27 00:17:31;;;;;;;2.23;1.47;;;;;;;;;;5109706;27;20031;-65
2022/06/27 00:20:02;;;;;;;4.50;1.40;;;;;;;;;;5094924;28;20509;-66
2022/06/27 00:22:33;;;;;;;3.70;1.40;;;;;;;;;;5094856;28;20016;-65
2022/06/27 00:25:11;;;;;;;2.13;1.30;;;;;;;;;;5089852;28;20028;-65
2022/06/27 00:27:42;;;;;;;3.23;1.00;;;;;;;;;;5102364;27;20027;-65
2022/06/27 00:30:13;;;;;;;2.73;1.20;;;;;;;;;;5109746;28;20028;-65
2022/06/27 00:32:49;;;;;;;3.00;1.30;;;;;;;;;;5109017;27;20027;-65
2022/06/27 00:35:21;;;;;;;2.70;1.40;;;;;;;;;;5116105;27;20088;-66
2022/06/27 00:38:01;;;;;;;3.40;1.30;;;;;;;;;;5135454;27;20027;-65
2022/06/27 00:40:35;;;;;;;2.87;1.37;;;;;;;;;;5135517;27;20019;-65
2022/06/27 00:43:15;;;;;;;21.17;19.08;;;;;;;;;;5135460;27;20034;-64
2022/06/27 00:45:48;;;;;;;3.70;2.50;;;;;;;;;;5127865;27;20553;-65
2022/06/27 00:48:22;;;;;;;25.95;22.70;;;;;;;;;;5109436;28;20536;-65
2022/06/27 00:50:56;;;;;;;9.37;8.67;;;;;;;;;;5109200;28;20019;-65
2022/06/27 00:53:28;;;;;;;5.78;2.70;;;;;;;;;;5109527;28;20634;-66
2022/06/27 00:56:00;;;;;;;8.70;3.60;;;;;;;;;;5111766;28;20031;-65
2022/06/27 00:58:37;;;;;;;4.40;1.20;;;;;;;;;;5115443;27;20038;-65
2022/06/27 01:01:11;;;;;;;2.87;1.47;;;;;;;;;;5115311;27;20020;-65
2022/06/27 01:03:42;;;;;;;4.68;1.20;;;;;;;;;;5115522;27;20028;-65
2022/06/27 01:06:16;;;;;;;39.53;34.67;;;;;;;;;;5117400;27;20474;-65
2022/06/27 01:08:53;;;;;;;36.75;23.75;;;;;;;;;;5113646;27;20113;-65
2022/06/27 01:11:24;;;;;;;1.87;1.10;;;;;;;;;;5108957;28;20032;-65
2022/06/27 01:13:58;;;;;;;3.50;1.07;;;;;;;;;;5108970;28;20028;-65
2022/06/27 01:16:30;;;;;;;2.38;1.20;;;;;;;;;;5108662;28;20031;-66
2022/06/27 01:19:04;;;;;;;3.50;1.40;;;;;;;;;;5121090;27;20027;-65
2022/06/27 01:21:39;;;;;;;2.20;0.90;;;;;;;;;;5134563;27;20072;-65
2022/06/27 01:24:12;;;;;;;3.47;1.50;;;;;;;;;;5134671;27;20015;-65
2022/06/27 01:26:44;;;;;;;2.40;1.40;;;;;;;;;;5134564;27;20024;-65
2022/06/27 01:29:19;;;;;;;3.13;1.77;;;;;;;;;;5134647;27;20042;-66
2022/06/27 01:31:50;;;;;;;;;;;;;;;;;;5112994;27;20034;-66
2022/06/27 01:34:29;;;;;;;2.23;1.67;;;;;;;;;;5108384;28;19904;-66
2022/06/27 01:37:06;;;;;;;5.27;2.00;;;;;;;;;;5108737;28;20462;-66
2022/06/27 01:39:38;;;;;;;3.83;2.10;;;;;;;;;;5108367;28;20036;-65
2022/06/27 01:42:09;;;;;;;4.87;1.83;;;;;;;;;;5113659;28;20031;-66
2022/06/27 01:44:43;;;;;;;3.37;2.00;;;;;;;;;;5132698;27;20485;-65
2022/06/27 01:47:19;;;;;;;3.13;2.07;;;;;;;;;;5134428;27;20015;-65
2022/06/27 01:49:52;;;;;;;4.53;2.17;;;;;;;;;;5134108;27;20034;-65
2022/06/27 01:52:24;;;;;;;4.37;2.10;;;;;;;;;;5132384;27;20023;-66
2022/06/27 01:54:58;;;;;;;3.17;1.93;;;;;;;;;;5124040;27;20466;-65
2022/06/27 01:57:32;;;;;;;7.60;2.05;;;;;;;;;;5108138;28;20031;-65
2022/06/27 02:00:09;;;;;;;3.97;2.13;;;;;;;;;;5108327;28;20070;-65
2022/06/27 02:02:49;;;;;;;4.20;1.70;;;;;;;;;;5109829;28;20015;-65
2022/06/27 02:05:23;;;;;;;3.23;1.83;;;;;;;;;;5113328;28;20604;-65
2022/06/27 02:07:58;;;;;;;2.40;1.83;;;;;;;;;;5114227;27;20028;-65
2022/06/27 02:10:37;;;;;;;4.07;1.30;;;;;;;;;;5113249;28;20482;-65
2022/06/27 02:13:15;;;;;;;2.60;1.33;;;;;;;;;;5112647;28;20054;-64
2022/06/27 02:16:08;;;;;;;1.47;1.00;;;;;;;;;;5109191;28;20016;-65
2022/06/27 02:18:38;;;;;;;3.57;1.30;;;;;;;;;;5089079;27;20093;-64
2022/06/27 02:21:12;;;;;;;2.70;1.50;;;;;;;;;;5105018;28;20031;-64
2022/06/27 02:23:49;;;;;;;4.68;1.67;;;;;;;;;;5109966;27;20027;-64
2022/06/27 02:26:33;;;;;;;2.53;1.60;;;;;;;;;;5113881;27;20028;-64
2022/06/27 02:29:04;;;;;;;2.17;1.13;;;;;;;;;;5117503;27;20008;-65
2022/06/27 02:31:35;;;;;;;1.53;1.00;;;;;;;;;;5118089;27;20035;-64
2022/06/27 02:34:06;;;;;;;2.37;1.10;;;;;;;;;;5128415;27;20026;-64
2022/06/27 02:36:41;;;;;;;1.33;0.83;;;;;;;;;;5132572;27;20553;-64
2022/06/27 02:39:20;;;;;;;4.25;2.47;;;;;;;;;;5123439;27;20031;-64
2022/06/27 02:41:57;;;;;;;3.63;1.10;;;;;;;;;;5107714;28;20492;-64
2022/06/27 02:44:28;;;;;;;1.97;1.17;;;;;;;;;;5115871;28;20030;-64
2022/06/27 02:47:01;;;;;;;1.83;1.00;;;;;;;;;;5116345;28;20023;-64
2022/06/27 02:49:35;;;;;;;3.00;1.67;;;;;;;;;;5110664;28;20458;-64
2022/06/27 02:52:25;;;;;;;3.15;1.60;;;;;;;;;;5111811;28;20042;-64
2022/06/27 02:55:17;;;;;;;4.57;2.50;;;;;;;;;;5112729;28;20023;-64
2022/06/27 02:58:00;;;;;;;2.37;1.40;;;;;;;;;;5098468;28;20126;-64
2022/06/27 03:00:32;;;;;;;3.23;1.43;;;;;;;;;;5108335;28;20028;-65
2022/06/27 03:03:06;;;;;;;2.83;1.97;;;;;;;;;;5107784;28;20798;-64
2022/06/27 03:05:47;;;;;;;41.17;14.07;;;;;;;;;;5107499;28;20047;-64
2022/06/27 03:08:17;;;;;;;4.30;2.27;;;;;;;;;;5107580;28;20051;-64
2022/06/27 03:10:48;;;;;;;4.30;2.10;;;;;;;;;;5112426;28;20020;-64
2022/06/27 03:13:22;;;;;;;2.63;1.60;;;;;;;;;;5113870;28;20374;-64
2022/06/27 03:16:05;;;;;;;3.90;1.80;;;;;;;;;;5116013;28;20107;-64
2022/06/27 03:18:35;;;;;;;3.37;1.97;;;;;;;;;;5096319;28;20523;-64
2022/06/27 03:21:17;;;;;;;5.77;1.70;;;;;;;;;;5095050;28;20526;-64
2022/06/27 03:23:54;;;;;;;5.33;1.80;;;;;;;;;;5122685;27;20477;-64
2022/06/27 03:26:30;;;;;;;4.77;3.33;;;;;;;;;;5124575;27;20062;-64
2022/06/27 03:29:09;;;;;;;3.07;2.07;;;;;;;;;;5111172;28;20378;-65
2022/06/27 03:31:40;;;;;;;2.37;1.67;;;;;;;;;;5112695;28;20085;-64
2022/06/27 03:34:13;;;;;;;3.87;1.73;;;;;;;;;;5118925;27;20028;-66
2022/06/27 03:36:50;;;;;;;2.20;1.40;;;;;;;;;;5136983;27;20034;-64
2022/06/27 03:39:33;;;;;;;2.77;1.30;;;;;;;;;;5134789;27;20377;-65
2022/06/27 03:42:09;;;;;;;6.07;2.30;;;;;;;;;;5135155;27;20042;-64
2022/06/27 03:44:40;;;;;;;2.37;1.30;;;;;;;;;;5125626;27;20023;-64
2022/06/27 03:47:20;;;;;;;4.17;1.40;;;;;;;;;;5122726;27;20023;-64
2022/06/27 03:50:03;;;;;;;3.63;1.43;;;;;;;;;;5114434;27;20024;-64
2022/06/27 03:52:33;;;;;;;2.03;1.50;;;;;;;;;;5102520;28;20081;-64
2022/06/27 03:55:03;;;;;;;1.83;1.30;;;;;;;;;;5114634;28;20030;-64
2022/06/27 03:57:34;;;;;;;2.07;1.53;;;;;;;;;;5116887;27;20015;-64
2022/06/27 04:00:01;;;;;;;3.33;1.77;;;;;;;;;;5115339;27;20020;-64
2022/06/27 04:02:30;;;;;;;2.17;1.57;;;;;;;;;;5116097;28;20156;-64
2022/06/27 04:05:07;;;;;;;3.37;1.40;;;;;;;;;;5101686;28;20028;-64
2022/06/27 04:07:38;;;;;;;2.83;2.53;;;;;;;;;;5089628;28;20162;-64
2022/06/27 04:10:13;;;;;;;3.13;1.10;;;;;;;;;;5105330;27;20046;-63
2022/06/27 04:12:45;;;;;;;2.13;1.30;;;;;;;;;;5130721;27;20019;-63
2022/06/27 04:15:19;;;;;;;3.03;1.17;;;;;;;;;;5130845;27;20520;-63
2022/06/27 04:18:03;;;;;;;;;;;;;;;;;;;;;
2022/06/27 04:20:30;;;;;;;3.53;1.52;;;;;;;;;;5094452;28;20024;-63
2022/06/27 04:22:57;;;;;;;3.63;1.80;;;;;;;;;;5122850;27;21309;-63
2022/06/27 04:25:23;;;;;;;5.63;2.37;;;;;;;;;;5135647;27;20029;-63
2022/06/27 04:27:50;;;;;;;9.27;3.33;;;;;;;;;;5134566;27;20072;-63
2022/06/27 04:30:17;;;;;;;5.80;3.53;;;;;;;;;;5130323;27;20034;-64
2022/06/27 04:32:45;;;;;;;10.33;4.17;;;;;;;;;;5130754;27;20027;-63
2022/06/27 04:35:12;;;;;;;5.47;3.60;;;;;;;;;;5114360;27;20428;-63
2022/06/27 04:37:43;;;;;;;6.30;3.90;;;;;;;;;;5109452;28;20032;-63
2022/06/27 04:40:11;;;;;;;7.07;3.27;;;;;;;;;;5115047;28;20043;-63
2022/06/27 04:42:39;;;;;;;7.90;3.20;;;;;;;;;;5115078;28;20058;-63
2022/06/27 04:45:11;;;;;;;5.20;3.27;;;;;;;;;;5114763;28;20055;-63
2022/06/27 04:47:41;;;;;;;6.60;4.70;;;;;;;;;;5131392;27;20066;-63
2022/06/27 04:50:14;;;;;;;6.07;2.83;;;;;;;;;;5134046;27;20473;-64
2022/06/27 04:52:41;;;;;;;5.33;4.83;;;;;;;;;;5130043;27;20034;-63
2022/06/27 04:55:09;;;;;;;3.40;2.30;;;;;;;;;;5130038;27;20042;-63
2022/06/27 04:57:40;;;;;;;2.83;1.93;;;;;;;;;;5129957;27;20038;-63
2022/06/27 05:00:08;;;;;;;4.97;1.30;;;;;;;;;;5129544;27;20031;-63
2022/06/27 05:02:35;;;;;;;3.87;1.50;;;;;;;;;;5134852;27;20019;-63
2022/06/27 05:05:02;;;;;;;5.83;2.27;;;;;;;;;;5134825;27;20440;-63
2022/06/27 05:07:30;;;;;;;41.90;38.10;;;;;;;;;;5135198;27;20087;-65
2022/06/27 05:10:00;;;;;;;2.90;1.60;;;;;;;;;;5132397;27;20031;-63
2022/06/27 05:12:27;;;;;;;2.73;1.47;;;;;;;;;;5113436;28;20020;-63
2022/06/27 05:14:54;;;;;;;3.30;2.00;;;;;;;;;;5109082;28;20019;-63
2022/06/27 05:17:21;;;;;;;1.40;0.90;;;;;;;;;;5108562;28;20036;-63
2022/06/27 05:19:48;;;;;;;226.20;97.90;;;;;;;;;;5108690;28;20157;-64
2022/06/27 05:22:15;;;;;;;2.67;1.13;;;;;;;;;;5111796;27;20035;-64
2022/06/27 05:24:41;;;;;;;2.63;1.37;;;;;;;;;;5134534;27;20024;-64
2022/06/27 05:27:09;;;;;;;3.40;1.17;;;;;;;;;;5134661;27;20370;-63
2022/06/27 05:29:36;;;;;;;9.50;1.90;;;;;;;;;;5134379;27;20096;-63
2022/06/27 05:32:04;;;;;;;6.37;2.70;;;;;;;;;;5134358;27;20077;-63
2022/06/27 05:34:30;;;;;;;3.50;2.10;;;;;;;;;;5130400;27;20058;-63
2022/06/27 05:36:57;;;;;;;2.43;1.30;;;;;;;;;;5108387;28;20486;-63
2022/06/27 05:39:24;;;;;;;3.50;1.40;;;;;;;;;;5107569;28;20032;-63
2022/06/27 05:41:50;;;;;;;2.20;1.20;;;;;;;;;;5108516;28;20023;-64
2022/06/27 05:44:17;;;;;;;4.03;2.30;;;;;;;;;;5108597;28;20027;-63
2022/06/27 05:46:44;;;;;;;8.70;4.53;;;;;;;;;;5120418;27;20031;-63
2022/06/27 05:49:14;;;;;;;5.27;3.10;;;;;;;;;;5134108;27;20034;-64
2022/06/27 05:51:41;;;;;;;4.73;2.00;;;;;;;;;;5133818;27;20023;-63
2022/06/27 05:54:09;;;;;;;5.30;2.33;;;;;;;;;;5133871;27;20026;-63
2022/06/27 05:56:36;;;;;;;6.10;2.90;;;;;;;;;;5133934;27;20042;-63
2022/06/27 05:59:04;;;;;;;6.83;3.67;;;;;;;;;;5125873;27;20031;-63
2022/06/27 06:01:31;;;;;;;6.03;3.37;;;;;;;;;;5116280;27;20055;-63
2022/06/27 06:03:58;;;;;;;5.53;3.13;;;;;;;;;;5108449;28;20027;-63
2022/06/27 06:06:25;;;;;;;4.80;2.87;;;;;;;;;;5107719;28;20110;-63
2022/06/27 06:08:53;;;;;;;4.93;2.93;;;;;;;;;;5112680;28;20399;-64
2022/06/27 06:11:20;;;;;;;6.73;3.80;;;;;;;;;;5122898;27;20449;-63
2022/06/27 06:13:47;;;;;;;6.97;3.00;;;;;;;;;;5133605;27;20019;-63
2022/06/27 06:16:16;;;;;;;5.83;3.13;;;;;;;;;;5126672;27;20057;-63
2022/06/27 06:18:44;;;;;;;4.20;2.80;;;;;;;;;;5092663;28;20036;-63
2022/06/27 06:21:11;;;;;;;4.53;3.17;;;;;;;;;;5087393;28;20020;-63
2022/06/27 06:23:38;;;;;;;5.33;3.23;;;;;;;;;;5115916;27;20031;-63
2022/06/27 06:26:05;;;;;;;6.77;3.53;;;;;;;;;;5128275;27;20435;-63
2022/06/27 06:28:32;;;;;;;6.93;3.10;;;;;;;;;;5128266;27;20023;-63
2022/06/27 06:30:59;;;;;;;6.63;3.77;;;;;;;;;;5132617;27;20072;-63
2022/06/27 06:33:26;;;;;;;5.27;3.50;;;;;;;;;;5133588;27;20027;-63
2022/06/27 06:35:54;;;;;;;5.87;3.10;;;;;;;;;;5114557;27;20027;-63
2022/06/27 06:38:21;;;;;;;5.83;3.20;;;;;;;;;;5112393;28;20046;-62
2022/06/27 06:40:48;;;;;;;9.40;2.93;;;;;;;;;;5112824;28;20107;-63
2022/06/27 06:43:15;;;;;;;5.40;2.60;;;;;;;;;;5107729;28;20103;-62
2022/06/27 06:45:42;;;;;;;4.57;2.93;;;;;;;;;;5107460;28;20020;-63
2022/06/27 06:48:09;;;;;;;6.87;3.00;;;;;;;;;;5126849;28;20026;-63
2022/06/27 06:50:36;;;;;;;5.77;2.80;;;;;;;;;;5109531;28;20080;-63
2022/06/27 06:53:03;;;;;;;6.53;2.73;;;;;;;;;;5111355;28;20031;-63
2022/06/27 06:55:30;;;;;;;3.87;2.57;;;;;;;;;;5112525;28;20028;-63
2022/06/27 06:57:57;;;;;;;5.40;3.13;;;;;;;;;;5112587;28;20039;-63
2022/06/27 07:00:24;;;;;;;4.70;2.40;;;;;;;;;;5132287;28;20063;-63
2022/06/27 07:02:52;;;;;;;4.40;2.60;;;;;;;;;;5132984;28;20026;-63
2022/06/27 07:05:19;;;;;;;5.03;3.30;;;;;;;;;;5128742;28;20027;-63
2022/06/27 07:07:50;;;;;;;5.47;2.40;;;;;;;;;;5127856;28;20023;-63
2022/06/27 07:10:18;;;;;;;4.20;2.70;;;;;;;;;;5124773;28;20023;-63
2022/06/27 07:12:46;;;;;;;5.07;2.67;;;;;;;;;;5113632;28;20034;-63
2022/06/27 07:15:13;;;;;;;4.37;2.50;;;;;;;;;;5131559;28;20023;-63
2022/06/27 07:17:45;;;;;;;4.00;2.30;;;;;;;;;;5101487;28;20039;-63
2022/06/27 07:20:13;;;;;;;6.10;2.73;;;;;;;;;;5092023;28;20051;-62
2022/06/27 07:22:40;;;;;;;7.57;2.93;;;;;;;;;;5099609;28;20027;-63
2022/06/27 07:25:07;;;;;;;4.67;3.17;;;;;;;;;;5132787;28;20047;-63
2022/06/27 07:27:36;;;;;;;4.80;3.13;;;;;;;;;;5128461;28;20035;-63
2022/06/27 07:30:05;;;;;;;5.30;3.37;;;;;;;;;;5127721;28;20043;-63
2022/06/27 07:32:32;;;;;;;4.63;2.97;;;;;;;;;;5127703;28;20054;-63
2022/06/27 07:35:00;;;;;;;4.90;2.20;;;;;;;;;;5120921;28;20047;-63
2022/06/27 07:37:26;;;;;;;580.87;403.03;;;;;;;;;;5110275;28;20088;-63
2022/06/27 07:39:53;;;;;;;6.10;3.00;;;;;;;;;;5112341;28;20027;-63
2022/06/27 07:42:20;;;;;;;3.77;2.63;;;;;;;;;;5112250;28;20667;-63
2022/06/27 07:44:48;;;;;;;3.37;1.93;;;;;;;;;;5112444;28;20023;-62
2022/06/27 07:47:14;;;;;;;4.10;2.50;;;;;;;;;;5121127;28;20020;-63
2022/06/27 07:49:41;;;;;;;3.80;2.37;;;;;;;;;;5128551;28;20106;-63
2022/06/27 07:52:08;;;;;;;3.70;2.43;;;;;;;;;;5127573;28;20034;-63
2022/06/27 07:54:35;;;;;;;4.37;2.37;;;;;;;;;;5126785;28;20108;-63
2022/06/27 07:57:02;;;;;;;3.77;2.53;;;;;;;;;;5127362;28;20059;-63
2022/06/27 07:59:29;;;;;;;4.67;2.83;;;;;;;;;;5120307;28;20043;-63
2022/06/27 08:01:55;;;;;;;2.90;2.17;;;;;;;;;;5113527;28;20020;-63
2022/06/27 08:04:23;;;;;;;3.47;2.23;;;;;;;;;;5115894;28;20108;-63
2022/06/27 08:06:50;;;;;;;11.97;2.20;;;;;;;;;;5115440;28;20063;-63
2022/06/27 08:09:21;;;;;;;3.07;2.20;;;;;;;;;;5115333;28;20019;-63
2022/06/27 08:11:48;;;;;;;200.70;75.27;;;;;;;;;;5119954;27;20377;-63
2022/06/27 08:14:17;;;;;;;349.30;112.13;;;;;;;;;;5130850;27;20374;-64
2022/06/27 08:16:46;;;;;;;7.93;2.93;;;;;;;;;;5115167;27;20024;-63
2022/06/27 08:19:13;;;;;;;8.33;2.87;;;;;;;;;;5089664;28;20067;-63
2022/06/27 08:21:41;;;;;;;5.57;2.83;;;;;;;;;;5092905;28;20522;-63
2022/06/27 08:24:09;;;;;;;6.27;2.50;;;;;;;;;;5121421;27;20118;-63
2022/06/27 08:26:36;;;;;;;16.20;3.17;;;;;;;;;;5135844;27;20023;-63
2022/06/27 08:29:04;;;;;;;4.10;2.27;;;;;;;;;;5135801;27;20028;-63
2022/06/27 08:31:32;;;;;;;7.00;2.57;;;;;;;;;;5135802;27;20022;-63
2022/06/27 08:34:01;;;;;;;9.47;2.47;;;;;;;;;;5115944;27;20424;-63
2022/06/27 08:36:35;;;;;;;5.00;2.37;;;;;;;;;;5110026;28;20051;-63
2022/06/27 08:39:05;;;;;;;45.15;3.35;;;;;;;;;;5109839;28;20032;-62
2022/06/27 08:41:32;;;;;;;9.23;2.90;;;;;;;;;;5109796;28;20027;-63
2022/06/27 08:44:00;;;;;;;5.00;2.00;;;;;;;;;;5126531;27;20019;-63
2022/06/27 08:46:28;;;;;;;29.30;26.60;;;;;;;;;;5135283;27;20016;-63
2022/06/27 08:48:55;;;;;;;5.90;2.13;;;;;;;;;;5135361;27;20482;-63
2022/06/27 08:51:23;;;;;;;5.17;2.10;;;;;;;;;;5135335;27;20015;-63
2022/06/27 08:53:53;;;;;;;3.30;1.83;;;;;;;;;;5124283;27;20491;-63
2022/06/27 08:56:20;;;;;;;4.73;1.97;;;;;;;;;;5110952;28;20026;-64
2022/06/27 08:58:47;;;;;;;11.93;3.40;;;;;;;;;;5109473;28;20024;-62
2022/06/27 09:01:16;;;;;;;5.47;3.03;;;;;;;;;;5109411;28;20465;-62
2022/06/27 09:03:56;;;;;;;8.03;3.40;;;;;;;;;;5109112;28;20031;-63
2022/06/27 09:06:22;;;;;;;4.03;2.50;;;;;;;;;;5129424;27;20035;-63
2022/06/27 09:09:11;;;;;;;8.93;2.90;;;;;;;;;;5135077;27;20119;-62
2022/06/27 09:11:39;;;;;;;5.23;3.23;;;;;;;;;;5135081;27;20026;-63
2022/06/27 09:14:08;;;;;;;5.20;2.70;;;;;;;;;;5134719;27;20015;-63
2022/06/27 09:16:35;;;;;;;6.07;3.07;;;;;;;;;;5124480;27;20021;-63
2022/06/27 09:19:02;;;;;;;5.00;2.57;;;;;;;;;;5129730;27;20058;-63
2022/06/27 09:21:28;;;;;;;5.40;3.17;;;;;;;;;;5129428;27;20323;-63
2022/06/27 09:24:01;;;;;;;8.03;3.10;;;;;;;;;;5129535;27;20020;-63
2022/06/27 09:26:31;;;;;;;17.77;4.17;;;;;;;;;;5129445;27;20019;-63
2022/06/27 09:29:14;;;;;;;4.03;2.70;;;;;;;;;;5130644;27;20521;-63
2022/06/27 09:31:42;;;;;;;4.60;2.63;;;;;;;;;;5113801;28;20026;-63
2022/06/27 09:34:27;;;;;;;14.10;13.10;;;;;;;;;;5113898;28;20058;-63
2022/06/27 09:36:55;;;;;;;6.32;2.22;;;;;;;;;;5113534;28;20027;-63
2022/06/27 09:39:29;;;;;;;4.50;2.27;;;;;;;;;;5113088;28;20019;-63
2022/06/27 09:42:00;;;;;;;4.78;3.00;;;;;;;;;;5115884;27;20031;-63
2022/06/27 09:44:29;;;;;;;4.90;3.00;;;;;;;;;;5129072;27;20015;-63
2022/06/27 09:47:00;;;;;;;6.33;3.10;;;;;;;;;;5129075;27;20032;-63
2022/06/27 09:49:31;;;;;;;3.53;2.27;;;;;;;;;;5116161;27;20502;-63
2022/06/27 09:51:58;;;;;;;3.20;2.10;;;;;;;;;;5113684;28;20940;-63
2022/06/27 09:54:26;;;;;;;4.30;2.30;;;;;;;;;;5123589;27;20130;-63
2022/06/27 09:56:53;;;;;;;6.67;5.70;;;;;;;;;;5133976;27;20023;-62
2022/06/27 09:59:21;;;;;;;4.33;3.23;;;;;;;;;;5133919;27;20083;-62
2022/06/27 10:01:49;;;;;;;8.83;4.70;;;;;;;;;;5132724;27;20120;-62
2022/06/27 10:04:17;;;;;;;13.60;3.20;;;;;;;;;;5128455;27;20377;-62
2022/06/27 10:06:43;;;;;;;3.93;2.80;;;;;;;;;;5126917;27;20493;-63
2022/06/27 10:09:12;;;;;;;4.73;3.10;;;;;;;;;;5128742;27;20054;-62
2022/06/27 10:11:39;;;;;;;3.53;2.60;;;;;;;;;;5128887;27;20080;-62
2022/06/27 10:14:35;;;;;;;4.23;2.73;;;;;;;;;;5133757;27;20521;-63
2022/06/27 10:17:01;;;;;;;;;;;;;;;;;;5097754;27;20031;-62
2022/06/27 10:19:28;;;;;;;19.10;3.30;;;;;;;;;;5133562;27;19958;-63
2022/06/27 10:21:56;;;;;;;5.67;2.90;;;;;;;;;;5133632;27;20086;-62
2022/06/27 10:24:24;;;;;;;5.70;2.93;;;;;;;;;;5131002;27;20486;-62
2022/06/27 10:26:51;;;;;;;5.63;3.27;;;;;;;;;;5128417;27;20018;-62
2022/06/27 10:29:42;;;;;;;6.20;4.13;;;;;;;;;;5110185;27;20140;-62
2022/06/27 10:32:29;;;;;;;5.57;3.53;;;;;;;;;;5107859;28;20032;-62
2022/06/27 10:34:55;;;;;;;12.10;3.90;;;;;;;;;;5111284;27;20019;-62
2022/06/27 10:37:25;;;;;;;4.30;2.87;;;;;;;;;;5112867;28;20016;-62
2022/06/27 10:40:17;;;;;;;8.67;3.67;;;;;;;;;;5112932;28;20052;-62
2022/06/27 10:42:50;;;;;;;7.13;5.63;;;;;;;;;;5112668;28;20467;-62
2022/06/27 10:45:24;;;;;;;3.63;1.97;;;;;;;;;;5128530;27;20373;-62
2022/06/27 10:47:50;;;;;;;3.00;1.53;;;;;;;;;;5128745;27;20373;-63
2022/06/27 10:50:18;;;;;;;4.13;1.43;;;;;;;;;;5128099;28;20481;-62
2022/06/27 10:52:45;;;;;;;3.30;1.90;;;;;;;;;;5128338;28;20083;-63
2022/06/27 10:55:33;;;;;;;4.53;1.63;;;;;;;;;;5127965;28;20015;-62
2022/06/27 10:58:00;;;;;;;22.97;4.33;;;;;;;;;;5119369;28;20084;-62
2022/06/27 11:00:40;;;;;;;3.73;1.53;;;;;;;;;;5133141;28;20031;-63
2022/06/27 11:03:08;;;;;;;8.67;2.57;;;;;;;;;;5132965;28;20098;-64
2022/06/27 11:05:53;;;;;;;5.17;2.00;;;;;;;;;;5133074;28;20023;-63
2022/06/27 11:08:23;;;;;;;2.40;1.55;;;;;;;;;;5120874;28;20028;-64
2022/06/27 11:10:50;;;;;;;4.07;1.23;;;;;;;;;;5107480;28;20020;-62
2022/06/27 11:13:35;;;;;;;4.17;1.70;;;;;;;;;;5107324;28;20528;-62
2022/06/27 11:16:03;;;;;;;2.20;1.30;;;;;;;;;;5107149;28;20051;-63
2022/06/27 11:18:49;;;;;;;7.17;1.60;;;;;;;;;;5108163;28;20039;-62
2022/06/27 11:21:18;;;;;;;2.10;1.17;;;;;;;;;;5115013;28;20058;-62
2022/06/27 11:23:53;;;;;;;1.57;1.07;;;;;;;;;;5112431;28;20034;-62
2022/06/27 11:26:21;;;;;;;2.30;1.80;;;;;;;;;;5112354;28;20037;-62
2022/06/27 11:34:18;;;;;;;1.30;0.83;;;;;;;;;;5116470;28;19914;-62
2022/06/27 11:36:45;;;;;;;2.13;1.10;;;;;;;;;;5108215;28;20508;-62
2022/06/27 11:39:14;;;;;;;1.40;0.80;;;;;;;;;;5111025;28;20034;-62
2022/06/27 11:41:41;;;;;;;2.73;1.00;;;;;;;;;;5113694;28;20024;-63
2022/06/27 11:44:08;;;;;;;1.80;0.97;;;;;;;;;;5122108;27;20098;-62
2022/06/27 11:46:45;;;;;;;3.17;1.20;;;;;;;;;;5136464;27;20561;-62
2022/06/27 11:49:16;;;;;;;4.63;1.30;;;;;;;;;;5136789;27;20019;-62
2022/06/27 11:51:47;;;;;;;1.87;1.00;;;;;;;;;;5136363;27;20027;-62
2022/06/27 11:54:17;;;;;;;3.07;0.77;;;;;;;;;;5132402;27;20035;-63
2022/06/27 11:56:44;;;;;;;2.17;0.90;;;;;;;;;;5116977;27;20453;-62
2022/06/27 11:59:12;;;;;;;3.50;1.20;;;;;;;;;;5110221;28;20111;-62
2022/06/27 12:01:53;;;;;;;6.40;2.17;;;;;;;;;;5110562;28;20038;-62
2022/06/27 12:04:21;;;;;;;1.30;1.10;;;;;;;;;;5114414;28;20031;-62
2022/06/27 12:06:49;;;;;;;0.80;0.70;;;;;;;;;;5115761;28;20024;-62
2022/06/27 12:09:16;;;;;;;1.50;1.20;;;;;;;;;;5131665;27;20027;-62
2022/06/27 12:11:56;;;;;;;1.30;1.00;;;;;;;;;;5136027;27;20488;-62
2022/06/27 12:14:24;;;;;;;1.67;0.97;;;;;;;;;;5136041;27;20058;-62
2022/06/27 12:16:52;;;;;;;2.70;1.30;;;;;;;;;;5113776;27;20454;-63
2022/06/27 12:19:18;;;;;;;1.90;1.20;;;;;;;;;;5090416;27;20058;-62
2022/06/27 12:21:46;;;;;;;1.90;1.37;;;;;;;;;;5130655;27;20023;-62
2022/06/27 12:24:13;;;;;;;2.40;1.50;;;;;;;;;;5130689;27;20069;-62
2022/06/27 12:26:40;;;;;;;1.83;0.90;;;;;;;;;;5134480;27;20023;-62
2022/06/27 12:29:07;;;;;;;1.50;0.80;;;;;;;;;;5135804;27;20027;-62
2022/06/27 12:31:35;;;;;;;3.50;2.53;;;;;;;;;;5123526;27;20343;-62
2022/06/27 12:34:02;;;;;;;2.30;1.80;;;;;;;;;;5115215;28;20027;-62
2022/06/27 12:36:30;;;;;;;1.83;1.10;;;;;;;;;;5115064;28;20543;-62
2022/06/27 12:38:57;;;;;;;1.73;1.13;;;;;;;;;;5110159;28;20111;-62
2022/06/27 12:41:24;;;;;;;1.80;1.07;;;;;;;;;;5120278;27;20038;-62
2022/06/27 12:43:51;;;;;;;3.27;1.07;;;;;;;;;;5130010;27;20027;-62
2022/06/27 12:46:18;;;;;;;8.60;1.00;;;;;;;;;;5130246;27;20030;-63
2022/06/27 12:48:45;;;;;;;4.00;0.90;;;;;;;;;;5133495;27;20069;-62
2022/06/27 12:51:12;;;;;;;2.73;0.70;;;;;;;;;;5135390;27;20351;-62
2022/06/27 12:53:39;;;;;;;1.40;0.80;;;;;;;;;;5124239;27;20091;-62
2022/06/27 12:56:06;;;;;;;1.30;0.80;;;;;;;;;;5114311;28;20023;-62
2022/06/27 12:58:33;;;;;;;1.83;0.53;;;;;;;;;;5114832;28;20031;-62
2022/06/27 13:01:00;;;;;;;1.43;0.80;;;;;;;;;;5110137;28;20068;-62
2022/06/27 13:03:27;;;;;;;1.47;0.67;;;;;;;;;;5109312;28;20023;-63
2022/06/27 13:05:54;;;;;;;3.93;0.60;;;;;;;;;;5110305;27;20030;-62
2022/06/27 13:08:20;;;;;;;5.17;0.83;;;;;;;;;;5114579;27;20027;-62
2022/06/27 13:10:47;;;;;;;2.53;0.90;;;;;;;;;;5133341;27;20389;-62
2022/06/27 13:13:14;;;;;;;6.13;2.57;;;;;;;;;;5134989;27;20031;-62
2022/06/27 13:15:40;;;;;;;1.77;0.90;;;;;;;;;;5134947;27;20035;-62
2022/06/27 13:18:08;;;;;;;2.23;1.10;;;;;;;;;;5121520;27;20035;-62
2022/06/27 13:20:35;;;;;;;2.50;0.60;;;;;;;;;;5134789;27;20027;-62
2022/06/27 13:23:02;;;;;;;1.37;0.90;;;;;;;;;;5130872;27;20502;-62
2022/06/27 13:25:29;;;;;;;2.20;0.90;;;;;;;;;;5129147;27;20031;-62
2022/06/27 13:27:56;;;;;;;50.07;45.50;;;;;;;;;;5129388;27;20050;-62
2022/06/27 13:30:23;;;;;;;64.03;14.40;;;;;;;;;;5113951;27;20058;-62
2022/06/27 13:32:49;;;;;;;1.77;1.63;;;;;;;;;;5106057;28;20042;-62
2022/06/27 13:35:16;;;;;;;1.93;1.20;;;;;;;;;;5113611;28;20024;-62
2022/06/27 13:37:42;;;;;;;2.67;1.63;;;;;;;;;;5113861;28;20035;-62
2022/06/27 13:40:10;;;;;;;7.13;3.00;;;;;;;;;;5113778;28;20094;-62
2022/06/27 13:42:37;;;;;;;6.57;2.70;;;;;;;;;;5126249;27;20049;-62
2022/06/27 13:45:04;;;;;;;4.53;2.17;;;;;;;;;;5110409;28;20064;-63
2022/06/27 13:47:31;;;;;;;3.00;1.90;;;;;;;;;;5108874;28;20034;-62
2022/06/27 13:49:58;;;;;;;2.23;1.40;;;;;;;;;;5108752;28;20015;-63
2022/06/27 13:52:25;;;;;;;3.17;1.77;;;;;;;;;;5107919;28;20034;-63
2022/06/27 13:54:52;;;;;;;71.27;51.27;;;;;;;;;;5127628;27;20027;-63
2022/06/27 13:57:19;;;;;;;5.57;1.30;;;;;;;;;;5117967;27;20031;-62
2022/06/27 13:59:45;;;;;;;89.33;73.30;;;;;;;;;;5111175;27;20043;-62
2022/06/27 14:02:12;;;;;;;0.97;0.40;;;;;;;;;;5118293;27;20236;-61
2022/06/27 14:04:39;;;;;;;261.57;89.90;;;;;;;;;;5113201;27;20032;-61
2022/06/27 14:09:50;;;;;;;0.55;0.52;;;;;;;;;;5099430;28;20046;-64
2022/06/27 14:12:17;;;;;;;51.37;35.60;;;;;;;;;;5092101;28;20027;-63
2022/06/27 14:14:44;;;;;;;1.27;0.70;;;;;;;;;;5108136;28;20024;-63
2022/06/27 14:17:10;;;;;;;2.03;0.60;;;;;;;;;;5115526;27;20032;-63
2022/06/27 14:19:38;;;;;;;0.90;0.60;;;;;;;;;;5103787;27;20043;-63
2022/06/27 14:22:04;;;;;;;0.90;0.60;;;;;;;;;;5112178;28;20355;-63
2022/06/27 14:24:32;;;;;;;1.63;1.53;;;;;;;;;;5112747;28;20027;-62
2022/06/27 14:26:59;;;;;;;243.30;46.37;;;;;;;;;;5111918;28;20063;-63
2022/06/27 14:29:26;;;;;;;3.70;0.60;;;;;;;;;;5110945;27;20150;-62
2022/06/27 14:31:53;;;;;;;5.60;0.57;;;;;;;;;;5107914;28;20016;-62
2022/06/27 14:34:20;;;;;;;34.37;15.13;;;;;;;;;;5107126;28;20096;-62
2022/06/27 14:36:47;;;;;;;2.07;0.87;;;;;;;;;;5107829;28;20023;-60
2022/06/27 14:39:14;;;;;;;0.50;0.40;;;;;;;;;;5101186;27;20036;-63
2022/06/27 14:41:41;;;;;;;29.33;2.20;;;;;;;;;;5104556;28;20027;-61
2022/06/27 14:44:11;;;;;;;52.33;6.10;;;;;;;;;;5096484;28;20023;-62
2022/06/27 14:46:38;;;;;;;0.80;0.40;;;;;;;;;;5112437;28;20095;-65
2022/06/27 14:49:05;;;;;;;2.20;0.50;;;;;;;;;;5112853;28;20107;-66
2022/06/27 14:51:31;;;;;;;0.20;0.20;;;;;;;;;;5110930;28;20028;-62
2022/06/27 14:53:59;;;;;;;1.53;0.50;;;;;;;;;;5103444;28;20027;-62
2022/06/27 14:56:28;;;;;;;0.93;0.67;;;;;;;;;;5105105;28;20035;-63
2022/06/27 14:58:55;;;;;;;3.33;0.90;;;;;;;;;;5107370;28;20580;-63
2022/06/27 15:01:22;;;;;;;1.23;0.60;;;;;;;;;;5110563;28;20019;-63
2022/06/27 15:03:49;;;;;;;0.63;0.43;;;;;;;;;;5131787;28;20015;-63
2022/06/27 15:06:18;;;;;;;6.13;5.70;;;;;;;;;;5133144;28;20023;-64
2022/06/27 15:08:45;;;;;;;2.13;0.80;;;;;;;;;;5132983;28;20161;-63
2022/06/27 15:13:58;;;;;;;357.13;86.30;;;;;;;;;;5113234;28;20447;-63